CSN12Q VHHH-VDPP
Flight info
| Callsign | CSN12Q |
|---|---|
| Flight time | 2h 14m |
| Altitude | 36000 |
| Route | PECAN V11 IDOSI P901 IKELA/K0857F360 A1 DAN Q1 MUMGA G474 PLK R588 GONLY/N0460F360 DETMA3A |
| Aircraft | A321/M-SDE3FGHIRWY/LB1 |
Departure
| Time | 2026-04-15 16:14 |
|---|---|
| Airport | Hong Kong International Airport (VHHH) |
Arrival
| Time | 2026-04-15 18:28 |
|---|---|
| Airport | Phnom Penh International Airport (VDPP) |
| Time | Latitude | Longitude | Altitude | Speed | Heading |
|---|---|---|---|---|---|
| 2026-04-15 16:02 | 22.31744 | 113.93089 | 32 ft | 0 kts | 261° |
| 2026-04-15 16:07 | 22.31746 | 113.93104 | 32 ft | 4 kts | 256° |
| 2026-04-15 16:07 | 22.31751 | 113.93132 | 32 ft | 4 kts | 267° |
| 2026-04-15 16:07 | 22.31730 | 113.93170 | 29 ft | 4 kts | 341° |
| 2026-04-15 16:08 | 22.31714 | 113.93176 | 31 ft | 0 kts | 341° |
| 2026-04-15 16:10 | 22.31721 | 113.93173 | 32 ft | 4 kts | 341° |
| 2026-04-15 16:10 | 22.31769 | 113.93155 | 32 ft | 10 kts | 341° |
| 2026-04-15 16:10 | 22.31837 | 113.93130 | 32 ft | 11 kts | 341° |
| 2026-04-15 16:11 | 22.31865 | 113.93059 | 32 ft | 13 kts | 251° |
| 2026-04-15 16:11 | 22.31836 | 113.92965 | 32 ft | 8 kts | 259° |
| 2026-04-15 16:11 | 22.31863 | 113.92917 | 32 ft | 8 kts | 327° |
| 2026-04-15 16:11 | 22.31923 | 113.92889 | 32 ft | 10 kts | 338° |
| 2026-04-15 16:12 | 22.31946 | 113.92879 | 31 ft | 0 kts | 339° |
| 2026-04-15 16:12 | 22.31947 | 113.92879 | 31 ft | 0 kts | 339° |
| 2026-04-15 16:12 | 22.31970 | 113.92870 | 33 ft | 7 kts | 340° |
| 2026-04-15 16:13 | 22.32028 | 113.92847 | 34 ft | 12 kts | 341° |
| 2026-04-15 16:13 | 22.32060 | 113.92813 | 34 ft | 6 kts | 270° |
| 2026-04-15 16:13 | 22.32046 | 113.92761 | 33 ft | 8 kts | 251° |
| 2026-04-15 16:13 | 22.31982 | 113.92560 | 34 ft | 62 kts | 251° |
| 2026-04-15 16:14 | 22.31760 | 113.91877 | 33 ft | 128 kts | 251° |
| 2026-04-15 16:14 | 22.31411 | 113.90787 | 33 ft | 177 kts | 250° |
| 2026-04-15 16:14 | 22.30981 | 113.89481 | 467 ft | 186 kts | 251° |
| 2026-04-15 16:14 | 22.30543 | 113.88159 | 1096 ft | 187 kts | 248° |
| 2026-04-15 16:15 | 22.30102 | 113.86811 | 1534 ft | 195 kts | 248° |
| 2026-04-15 16:15 | 22.29633 | 113.85399 | 1881 ft | 204 kts | 247° |
| 2026-04-15 16:15 | 22.29140 | 113.83912 | 2189 ft | 217 kts | 248° |
| 2026-04-15 16:15 | 22.28641 | 113.82375 | 2887 ft | 213 kts | 249° |
| 2026-04-15 16:16 | 22.28170 | 113.80865 | 3526 ft | 213 kts | 249° |
| 2026-04-15 16:16 | 22.27692 | 113.79350 | 4130 ft | 214 kts | 249° |
| 2026-04-15 16:16 | 22.27208 | 113.77825 | 4711 ft | 215 kts | 249° |
| 2026-04-15 16:16 | 22.26884 | 113.76812 | 5057 ft | 216 kts | 249° |
| 2026-04-15 16:17 | 22.26393 | 113.75277 | 5584 ft | 217 kts | 249° |
| 2026-04-15 16:17 | 22.25354 | 113.73423 | 6251 ft | 220 kts | 226° |
| 2026-04-15 16:17 | 22.24095 | 113.72384 | 6441 ft | 240 kts | 213° |
| 2026-04-15 16:17 | 22.23116 | 113.71775 | 6661 ft | 248 kts | 205° |
| 2026-04-15 16:18 | 22.20852 | 113.71344 | 7375 ft | 256 kts | 175° |
| 2026-04-15 16:18 | 22.19671 | 113.71640 | 7765 ft | 261 kts | 160° |
| 2026-04-15 16:18 | 22.17989 | 113.72402 | 8374 ft | 264 kts | 159° |
| 2026-04-15 16:18 | 22.16290 | 113.73184 | 8873 ft | 268 kts | 159° |
| 2026-04-15 16:19 | 22.14576 | 113.73973 | 8983 ft | 268 kts | 159° |
| 2026-04-15 16:19 | 22.12870 | 113.74774 | 9002 ft | 267 kts | 154° |
| 2026-04-15 16:19 | 22.11307 | 113.75925 | 9015 ft | 283 kts | 142° |
| 2026-04-15 16:19 | 22.09763 | 113.77304 | 9007 ft | 291 kts | 142° |
| 2026-04-15 16:20 | 22.08213 | 113.78719 | 9005 ft | 293 kts | 137° |
| 2026-04-15 16:20 | 22.06958 | 113.80420 | 9007 ft | 295 kts | 121° |
| 2026-04-15 16:20 | 22.06163 | 113.82483 | 9355 ft | 301 kts | 105° |
| 2026-04-15 16:20 | 22.05727 | 113.84697 | 10015 ft | 304 kts | 103° |
| 2026-04-15 16:21 | 22.05271 | 113.87003 | 10185 ft | 325 kts | 103° |
| 2026-04-15 16:21 | 22.04771 | 113.89456 | 10309 ft | 345 kts | 105° |
| 2026-04-15 16:21 | 22.03952 | 113.91943 | 10514 ft | 358 kts | 117° |
| 2026-04-15 16:21 | 22.02646 | 113.94241 | 10975 ft | 362 kts | 129° |
| 2026-04-15 16:22 | 22.00917 | 113.96228 | 11472 ft | 363 kts | 141° |
| 2026-04-15 16:22 | 21.98992 | 113.98010 | 11985 ft | 367 kts | 142° |
| 2026-04-15 16:22 | 21.97046 | 113.99816 | 12502 ft | 371 kts | 142° |
| 2026-04-15 16:22 | 21.95057 | 114.01603 | 13006 ft | 373 kts | 147° |
| 2026-04-15 16:23 | 21.92829 | 114.03021 | 13506 ft | 371 kts | 159° |
| 2026-04-15 16:23 | 21.90398 | 114.03922 | 13970 ft | 370 kts | 171° |
| 2026-04-15 16:23 | 21.87864 | 114.04413 | 14413 ft | 371 kts | 174° |
| 2026-04-15 16:23 | 21.85307 | 114.04886 | 14873 ft | 374 kts | 173° |
| 2026-04-15 16:24 | 21.82729 | 114.05370 | 15323 ft | 377 kts | 173° |
| 2026-04-15 16:24 | 21.80131 | 114.05863 | 15768 ft | 381 kts | 173° |
| 2026-04-15 16:24 | 21.77545 | 114.06358 | 16205 ft | 384 kts | 173° |
| 2026-04-15 16:24 | 21.74903 | 114.06864 | 16646 ft | 388 kts | 173° |
| 2026-04-15 16:25 | 21.72234 | 114.07377 | 17078 ft | 391 kts | 173° |
| 2026-04-15 16:25 | 21.69545 | 114.07893 | 17519 ft | 394 kts | 173° |
| 2026-04-15 16:25 | 21.66793 | 114.08393 | 17964 ft | 397 kts | 176° |
| 2026-04-15 16:25 | 21.64040 | 114.08481 | 18360 ft | 396 kts | 187° |
| 2026-04-15 16:26 | 21.61327 | 114.08021 | 18760 ft | 395 kts | 197° |
| 2026-04-15 16:26 | 21.58687 | 114.07323 | 19163 ft | 397 kts | 197° |
| 2026-04-15 16:26 | 21.55993 | 114.06618 | 19571 ft | 400 kts | 196° |
| 2026-04-15 16:26 | 21.53281 | 114.05914 | 19987 ft | 402 kts | 196° |
| 2026-04-15 16:27 | 21.50551 | 114.05209 | 20411 ft | 405 kts | 196° |
| 2026-04-15 16:27 | 21.47800 | 114.04500 | 20825 ft | 407 kts | 196° |
| 2026-04-15 16:27 | 21.45034 | 114.03790 | 21226 ft | 410 kts | 195° |
| 2026-04-15 16:27 | 21.42193 | 114.03369 | 21607 ft | 415 kts | 186° |
| 2026-04-15 16:28 | 21.39306 | 114.03185 | 21987 ft | 417 kts | 186° |
| 2026-04-15 16:28 | 21.36398 | 114.02995 | 22366 ft | 419 kts | 186° |
| 2026-04-15 16:28 | 21.33474 | 114.02798 | 22736 ft | 422 kts | 186° |
| 2026-04-15 16:28 | 21.30538 | 114.02597 | 23098 ft | 424 kts | 186° |
| 2026-04-15 16:29 | 21.27588 | 114.02395 | 23431 ft | 427 kts | 186° |
| 2026-04-15 16:29 | 21.24612 | 114.02191 | 23707 ft | 430 kts | 186° |
| 2026-04-15 16:29 | 21.21623 | 114.01992 | 24008 ft | 431 kts | 186° |
| 2026-04-15 16:29 | 21.18623 | 114.01795 | 24306 ft | 433 kts | 186° |
| 2026-04-15 16:30 | 21.15599 | 114.01599 | 24626 ft | 434 kts | 186° |
| 2026-04-15 16:30 | 21.12577 | 114.01401 | 24939 ft | 436 kts | 186° |
| 2026-04-15 16:30 | 21.09547 | 114.01200 | 25242 ft | 437 kts | 186° |
| 2026-04-15 16:30 | 21.06508 | 114.00995 | 25548 ft | 438 kts | 186° |
| 2026-04-15 16:31 | 21.03456 | 114.00786 | 25851 ft | 440 kts | 186° |
| 2026-04-15 16:31 | 21.00395 | 114.00578 | 26155 ft | 441 kts | 186° |
| 2026-04-15 16:31 | 20.97336 | 114.00287 | 26426 ft | 441 kts | 192° |
| 2026-04-15 16:31 | 20.94361 | 113.99504 | 26703 ft | 440 kts | 201° |
| 2026-04-15 16:32 | 20.91573 | 113.98184 | 26983 ft | 438 kts | 211° |
| 2026-04-15 16:32 | 20.89069 | 113.96410 | 27262 ft | 438 kts | 218° |
| 2026-04-15 16:32 | 20.86618 | 113.94460 | 27539 ft | 439 kts | 218° |
| 2026-04-15 16:32 | 20.84153 | 113.92511 | 27823 ft | 441 kts | 218° |
| 2026-04-15 16:33 | 20.81680 | 113.90568 | 28101 ft | 442 kts | 218° |
| 2026-04-15 16:33 | 20.79193 | 113.88622 | 28372 ft | 443 kts | 218° |
| 2026-04-15 16:33 | 20.76703 | 113.86672 | 28634 ft | 445 kts | 218° |
| 2026-04-15 16:33 | 20.74200 | 113.84710 | 28903 ft | 446 kts | 218° |
| 2026-04-15 16:34 | 20.71697 | 113.82741 | 29173 ft | 448 kts | 218° |
| 2026-04-15 16:34 | 20.69179 | 113.80758 | 29416 ft | 449 kts | 217° |
| 2026-04-15 16:34 | 20.66657 | 113.78774 | 29676 ft | 451 kts | 217° |
| 2026-04-15 16:34 | 20.64127 | 113.76783 | 29926 ft | 453 kts | 217° |
| 2026-04-15 16:35 | 20.61589 | 113.74785 | 30203 ft | 453 kts | 218° |
| 2026-04-15 16:35 | 20.59059 | 113.72797 | 30527 ft | 451 kts | 218° |
| 2026-04-15 16:35 | 20.56565 | 113.70839 | 30835 ft | 450 kts | 218° |
| 2026-04-15 16:35 | 20.54013 | 113.68839 | 31131 ft | 449 kts | 218° |
| 2026-04-15 16:36 | 20.51531 | 113.66897 | 31422 ft | 448 kts | 218° |
| 2026-04-15 16:36 | 20.49015 | 113.64932 | 31716 ft | 447 kts | 218° |
| 2026-04-15 16:36 | 20.46503 | 113.62970 | 32012 ft | 447 kts | 218° |
| 2026-04-15 16:36 | 20.43995 | 113.61005 | 32304 ft | 446 kts | 218° |
| 2026-04-15 16:37 | 20.41498 | 113.59044 | 32595 ft | 445 kts | 218° |
| 2026-04-15 16:37 | 20.39006 | 113.57086 | 32886 ft | 444 kts | 218° |
| 2026-04-15 16:37 | 20.36519 | 113.55134 | 33170 ft | 444 kts | 218° |
| 2026-04-15 16:37 | 20.34028 | 113.53184 | 33443 ft | 443 kts | 218° |
| 2026-04-15 16:38 | 20.31541 | 113.51241 | 33741 ft | 442 kts | 218° |
| 2026-04-15 16:38 | 20.29060 | 113.49306 | 34005 ft | 442 kts | 218° |
| 2026-04-15 16:38 | 20.26579 | 113.47374 | 34245 ft | 441 kts | 218° |
| 2026-04-15 16:38 | 20.24106 | 113.45449 | 34492 ft | 440 kts | 218° |
| 2026-04-15 16:39 | 20.21673 | 113.43550 | 34742 ft | 439 kts | 218° |
| 2026-04-15 16:39 | 20.19205 | 113.41623 | 35002 ft | 438 kts | 218° |
| 2026-04-15 16:39 | 20.16749 | 113.39710 | 35257 ft | 437 kts | 218° |
| 2026-04-15 16:39 | 20.14299 | 113.37797 | 35475 ft | 437 kts | 218° |
| 2026-04-15 16:40 | 20.11851 | 113.35883 | 35691 ft | 437 kts | 218° |
| 2026-04-15 16:40 | 20.09397 | 113.33971 | 35868 ft | 437 kts | 218° |
| 2026-04-15 16:40 | 20.06946 | 113.32067 | 35919 ft | 436 kts | 218° |
| 2026-04-15 16:41 | 20.02057 | 113.28266 | 35917 ft | 435 kts | 218° |
| 2026-04-15 16:41 | 19.97172 | 113.24474 | 35921 ft | 435 kts | 218° |
| 2026-04-15 16:42 | 19.92286 | 113.20678 | 35916 ft | 434 kts | 218° |
| 2026-04-15 16:42 | 19.87405 | 113.16885 | 35914 ft | 435 kts | 218° |
| 2026-04-15 16:43 | 19.82511 | 113.13101 | 35911 ft | 436 kts | 217° |
| 2026-04-15 16:43 | 19.77610 | 113.09306 | 35921 ft | 436 kts | 217° |
| 2026-04-15 16:44 | 19.72737 | 113.05527 | 35926 ft | 437 kts | 218° |
| 2026-04-15 16:44 | 19.67822 | 113.01714 | 35930 ft | 437 kts | 217° |
| 2026-04-15 16:45 | 19.62898 | 112.97917 | 35937 ft | 437 kts | 217° |
| 2026-04-15 16:45 | 19.57972 | 112.94118 | 35924 ft | 438 kts | 217° |
| 2026-04-15 16:46 | 19.53047 | 112.90308 | 35922 ft | 438 kts | 217° |
| 2026-04-15 16:46 | 19.48113 | 112.86508 | 35925 ft | 438 kts | 217° |
| 2026-04-15 16:47 | 19.43207 | 112.82724 | 35924 ft | 438 kts | 217° |
| 2026-04-15 16:47 | 19.38277 | 112.78925 | 35924 ft | 438 kts | 217° |
| 2026-04-15 16:48 | 19.33337 | 112.75127 | 35924 ft | 438 kts | 217° |
| 2026-04-15 16:48 | 19.28387 | 112.71339 | 35915 ft | 439 kts | 217° |
| 2026-04-15 16:49 | 19.23409 | 112.67589 | 35918 ft | 439 kts | 217° |
| 2026-04-15 16:49 | 19.18420 | 112.63851 | 35918 ft | 439 kts | 217° |
| 2026-04-15 16:50 | 19.13462 | 112.60122 | 35922 ft | 440 kts | 217° |
| 2026-04-15 16:50 | 19.08463 | 112.56359 | 35919 ft | 440 kts | 217° |
| 2026-04-15 16:51 | 19.03470 | 112.52611 | 35921 ft | 440 kts | 217° |
| 2026-04-15 16:51 | 18.98470 | 112.48864 | 35915 ft | 440 kts | 216° |
| 2026-04-15 16:52 | 18.93488 | 112.45100 | 35918 ft | 440 kts | 217° |
| 2026-04-15 16:52 | 18.88500 | 112.41324 | 35918 ft | 441 kts | 217° |
| 2026-04-15 16:53 | 18.83537 | 112.37581 | 35922 ft | 441 kts | 217° |
| 2026-04-15 16:53 | 18.78529 | 112.33811 | 35924 ft | 442 kts | 217° |
| 2026-04-15 16:54 | 18.73521 | 112.30051 | 35913 ft | 442 kts | 216° |
| 2026-04-15 16:54 | 18.68526 | 112.26277 | 35915 ft | 441 kts | 218° |
| 2026-04-15 16:55 | 18.64339 | 112.21603 | 35915 ft | 439 kts | 237° |
| 2026-04-15 16:55 | 18.60968 | 112.16231 | 35915 ft | 439 kts | 236° |
| 2026-04-15 16:56 | 18.57589 | 112.10900 | 35918 ft | 440 kts | 236° |
| 2026-04-15 16:56 | 18.54183 | 112.05549 | 35918 ft | 440 kts | 236° |
| 2026-04-15 16:57 | 18.50789 | 112.00188 | 35916 ft | 440 kts | 236° |
| 2026-04-15 16:57 | 18.47394 | 111.94815 | 35914 ft | 440 kts | 236° |
| 2026-04-15 16:58 | 18.43988 | 111.89445 | 35911 ft | 441 kts | 236° |
| 2026-04-15 16:58 | 18.40574 | 111.84076 | 35915 ft | 441 kts | 236° |
| 2026-04-15 16:59 | 18.37188 | 111.78742 | 35916 ft | 441 kts | 236° |
| 2026-04-15 16:59 | 18.33772 | 111.73368 | 35918 ft | 441 kts | 236° |
| 2026-04-15 17:00 | 18.30355 | 111.68004 | 35919 ft | 441 kts | 236° |
| 2026-04-15 17:00 | 18.26940 | 111.62637 | 35920 ft | 441 kts | 236° |
| 2026-04-15 17:01 | 18.23525 | 111.57277 | 35919 ft | 440 kts | 236° |
| 2026-04-15 17:01 | 18.20126 | 111.51957 | 35918 ft | 440 kts | 236° |
| 2026-04-15 17:02 | 18.16711 | 111.46603 | 35908 ft | 441 kts | 236° |
| 2026-04-15 17:02 | 18.13868 | 111.42144 | 35912 ft | 441 kts | 236° |
| 2026-04-15 17:03 | 18.10437 | 111.36781 | 35913 ft | 442 kts | 236° |
| 2026-04-15 17:03 | 18.07004 | 111.31420 | 35914 ft | 442 kts | 236° |
| 2026-04-15 17:04 | 18.03009 | 111.25192 | 35913 ft | 442 kts | 236° |
| 2026-04-15 17:04 | 17.99583 | 111.19831 | 35913 ft | 442 kts | 236° |
| 2026-04-15 17:05 | 17.96710 | 111.15342 | 35914 ft | 441 kts | 236° |
| 2026-04-15 17:05 | 17.93295 | 111.10031 | 35914 ft | 441 kts | 236° |
| 2026-04-15 17:06 | 17.89863 | 111.04692 | 35901 ft | 441 kts | 236° |
| 2026-04-15 17:06 | 17.86428 | 110.99345 | 35902 ft | 441 kts | 236° |
| 2026-04-15 17:07 | 17.82982 | 110.93997 | 35906 ft | 442 kts | 236° |
| 2026-04-15 17:07 | 17.79537 | 110.88651 | 35906 ft | 442 kts | 236° |
| 2026-04-15 17:08 | 17.76091 | 110.83307 | 35904 ft | 442 kts | 236° |
| 2026-04-15 17:08 | 17.72662 | 110.78001 | 35906 ft | 441 kts | 236° |
| 2026-04-15 17:09 | 17.69224 | 110.72668 | 35906 ft | 441 kts | 236° |
| 2026-04-15 17:09 | 17.65781 | 110.67332 | 35905 ft | 441 kts | 236° |
| 2026-04-15 17:10 | 17.62333 | 110.62005 | 35903 ft | 442 kts | 236° |
| 2026-04-15 17:10 | 17.58887 | 110.56677 | 35905 ft | 442 kts | 236° |
| 2026-04-15 17:11 | 17.55433 | 110.51342 | 35906 ft | 442 kts | 236° |
| 2026-04-15 17:11 | 17.51983 | 110.46013 | 35907 ft | 442 kts | 236° |
| 2026-04-15 17:12 | 17.46789 | 110.38017 | 35909 ft | 442 kts | 236° |
| 2026-04-15 17:12 | 17.43336 | 110.32695 | 35907 ft | 442 kts | 236° |
| 2026-04-15 17:13 | 17.39884 | 110.27376 | 35906 ft | 441 kts | 236° |
| 2026-04-15 17:13 | 17.36492 | 110.22074 | 35906 ft | 441 kts | 237° |
| 2026-04-15 17:14 | 17.33083 | 110.16728 | 35904 ft | 440 kts | 237° |
| 2026-04-15 17:14 | 17.29673 | 110.11406 | 35905 ft | 440 kts | 237° |
| 2026-04-15 17:15 | 17.26262 | 110.06098 | 35898 ft | 439 kts | 237° |
| 2026-04-15 17:15 | 17.22851 | 110.00787 | 35896 ft | 439 kts | 237° |
| 2026-04-15 17:16 | 17.19451 | 109.95478 | 35893 ft | 439 kts | 237° |
| 2026-04-15 17:16 | 17.16044 | 109.90173 | 35893 ft | 439 kts | 237° |
| 2026-04-15 17:17 | 17.12656 | 109.84905 | 35891 ft | 439 kts | 237° |
| 2026-04-15 17:17 | 17.09242 | 109.79605 | 35890 ft | 440 kts | 236° |
| 2026-04-15 17:18 | 17.05820 | 109.74302 | 35882 ft | 440 kts | 236° |
| 2026-04-15 17:18 | 17.02394 | 109.68997 | 35887 ft | 440 kts | 236° |
| 2026-04-15 17:19 | 16.98973 | 109.63699 | 35885 ft | 440 kts | 236° |
| 2026-04-15 17:19 | 16.95550 | 109.58393 | 35887 ft | 440 kts | 236° |
| 2026-04-15 17:20 | 16.92126 | 109.53091 | 35889 ft | 440 kts | 236° |
| 2026-04-15 17:20 | 16.88698 | 109.47786 | 35886 ft | 440 kts | 236° |
| 2026-04-15 17:21 | 16.85290 | 109.42520 | 35884 ft | 440 kts | 236° |
| 2026-04-15 17:21 | 16.81856 | 109.37218 | 35883 ft | 440 kts | 236° |
| 2026-04-15 17:22 | 16.78427 | 109.31927 | 35876 ft | 440 kts | 236° |
| 2026-04-15 17:22 | 16.74999 | 109.26632 | 35877 ft | 440 kts | 236° |
| 2026-04-15 17:23 | 16.71568 | 109.21334 | 35875 ft | 440 kts | 236° |
| 2026-04-15 17:23 | 16.68134 | 109.16041 | 35876 ft | 440 kts | 236° |
| 2026-04-15 17:24 | 16.64698 | 109.10747 | 35876 ft | 440 kts | 236° |
| 2026-04-15 17:24 | 16.61286 | 109.05492 | 35876 ft | 440 kts | 236° |
| 2026-04-15 17:25 | 16.57852 | 109.00206 | 35876 ft | 440 kts | 236° |
| 2026-04-15 17:25 | 16.54417 | 108.94929 | 35868 ft | 440 kts | 236° |
| 2026-04-15 17:26 | 16.50930 | 108.89688 | 35863 ft | 440 kts | 235° |
| 2026-04-15 17:26 | 16.47426 | 108.84469 | 35857 ft | 440 kts | 235° |
| 2026-04-15 17:27 | 16.43948 | 108.79269 | 35855 ft | 440 kts | 235° |
| 2026-04-15 17:27 | 16.40456 | 108.74031 | 35856 ft | 440 kts | 235° |
| 2026-04-15 17:28 | 16.36962 | 108.68791 | 35852 ft | 440 kts | 235° |
| 2026-04-15 17:28 | 16.33482 | 108.63542 | 35852 ft | 440 kts | 236° |
| 2026-04-15 17:29 | 16.30075 | 108.58241 | 35848 ft | 440 kts | 236° |
| 2026-04-15 17:29 | 16.26682 | 108.52934 | 35846 ft | 440 kts | 236° |
| 2026-04-15 17:30 | 16.23296 | 108.47676 | 35846 ft | 440 kts | 236° |
| 2026-04-15 17:30 | 16.19881 | 108.42394 | 35839 ft | 440 kts | 236° |
| 2026-04-15 17:31 | 16.16454 | 108.37100 | 35839 ft | 441 kts | 236° |
| 2026-04-15 17:31 | 16.13024 | 108.31803 | 35845 ft | 442 kts | 236° |
| 2026-04-15 17:32 | 16.09592 | 108.26493 | 35850 ft | 442 kts | 235° |
| 2026-04-15 17:32 | 16.07621 | 108.24044 | 35847 ft | 442 kts | 224° |
| 2026-04-15 17:32 | 16.05206 | 108.22071 | 35849 ft | 443 kts | 212° |
| 2026-04-15 17:33 | 16.02443 | 108.20649 | 35843 ft | 444 kts | 201° |
| 2026-04-15 17:33 | 15.99451 | 108.19838 | 35844 ft | 446 kts | 189° |
| 2026-04-15 17:33 | 15.93228 | 108.19554 | 35837 ft | 448 kts | 183° |
| 2026-04-15 17:34 | 15.86971 | 108.19422 | 35831 ft | 449 kts | 183° |
| 2026-04-15 17:34 | 15.80745 | 108.19293 | 35834 ft | 450 kts | 183° |
| 2026-04-15 17:35 | 15.74477 | 108.19157 | 35839 ft | 451 kts | 183° |
| 2026-04-15 17:35 | 15.68202 | 108.19016 | 35843 ft | 451 kts | 183° |
| 2026-04-15 17:36 | 15.61919 | 108.18883 | 35847 ft | 451 kts | 183° |
| 2026-04-15 17:36 | 15.55643 | 108.18745 | 35860 ft | 451 kts | 182° |
| 2026-04-15 17:37 | 15.49404 | 108.18610 | 35861 ft | 452 kts | 182° |
| 2026-04-15 17:37 | 15.43117 | 108.18480 | 35878 ft | 452 kts | 182° |
| 2026-04-15 17:38 | 15.36835 | 108.18342 | 35874 ft | 452 kts | 182° |
| 2026-04-15 17:38 | 15.30541 | 108.18213 | 35876 ft | 452 kts | 182° |
| 2026-04-15 17:39 | 15.24247 | 108.18078 | 35902 ft | 452 kts | 182° |
| 2026-04-15 17:39 | 15.17941 | 108.17936 | 35901 ft | 453 kts | 182° |
| 2026-04-15 17:40 | 15.11635 | 108.17799 | 35921 ft | 453 kts | 182° |
| 2026-04-15 17:40 | 15.05332 | 108.17666 | 35922 ft | 453 kts | 182° |
| 2026-04-15 17:41 | 14.99067 | 108.17529 | 35936 ft | 452 kts | 182° |
| 2026-04-15 17:41 | 14.92771 | 108.17383 | 35936 ft | 452 kts | 182° |
| 2026-04-15 17:42 | 14.86480 | 108.17242 | 35936 ft | 452 kts | 182° |
| 2026-04-15 17:42 | 14.80182 | 108.17106 | 35937 ft | 453 kts | 182° |
| 2026-04-15 17:43 | 14.73876 | 108.16966 | 35946 ft | 453 kts | 182° |
| 2026-04-15 17:43 | 14.67571 | 108.16825 | 35948 ft | 453 kts | 182° |
| 2026-04-15 17:44 | 14.61307 | 108.16689 | 35952 ft | 453 kts | 182° |
| 2026-04-15 17:44 | 14.54995 | 108.16549 | 35951 ft | 453 kts | 182° |
| 2026-04-15 17:45 | 14.48687 | 108.16412 | 35946 ft | 453 kts | 182° |
| 2026-04-15 17:45 | 14.42375 | 108.16277 | 35948 ft | 453 kts | 182° |
| 2026-04-15 17:46 | 14.36107 | 108.16139 | 35948 ft | 453 kts | 182° |
| 2026-04-15 17:46 | 14.29801 | 108.15998 | 35949 ft | 453 kts | 182° |
| 2026-04-15 17:47 | 14.23498 | 108.15862 | 35945 ft | 453 kts | 182° |
| 2026-04-15 17:47 | 14.17190 | 108.15729 | 35937 ft | 453 kts | 182° |
| 2026-04-15 17:48 | 14.10881 | 108.15546 | 35935 ft | 452 kts | 188° |
| 2026-04-15 17:48 | 14.07830 | 108.14832 | 35932 ft | 449 kts | 202° |
| 2026-04-15 17:48 | 14.05085 | 108.13336 | 35929 ft | 446 kts | 217° |
| 2026-04-15 17:49 | 14.02831 | 108.11166 | 35923 ft | 444 kts | 232° |
| 2026-04-15 17:49 | 14.01201 | 108.08477 | 35914 ft | 444 kts | 246° |
| 2026-04-15 17:49 | 14.00292 | 108.05449 | 35910 ft | 444 kts | 260° |
| 2026-04-15 17:49 | 13.99725 | 108.02323 | 35905 ft | 444 kts | 253° |
| 2026-04-15 17:50 | 13.98596 | 107.99375 | 35898 ft | 444 kts | 241° |
| 2026-04-15 17:50 | 13.97540 | 107.97573 | 35898 ft | 444 kts | 234° |
| 2026-04-15 17:50 | 13.93999 | 107.92348 | 35895 ft | 446 kts | 236° |
| 2026-04-15 17:51 | 13.90019 | 107.86142 | 35903 ft | 447 kts | 237° |
| 2026-04-15 17:51 | 13.86604 | 107.80779 | 35913 ft | 448 kts | 237° |
| 2026-04-15 17:52 | 13.83720 | 107.76294 | 35913 ft | 449 kts | 236° |
| 2026-04-15 17:52 | 13.80281 | 107.70981 | 35906 ft | 449 kts | 236° |
| 2026-04-15 17:53 | 13.76808 | 107.65632 | 35909 ft | 449 kts | 236° |
| 2026-04-15 17:53 | 13.73331 | 107.60282 | 35904 ft | 449 kts | 236° |
| 2026-04-15 17:54 | 13.69856 | 107.54936 | 35896 ft | 449 kts | 236° |
| 2026-04-15 17:54 | 13.66352 | 107.49617 | 35893 ft | 449 kts | 232° |
| 2026-04-15 17:55 | 13.62426 | 107.44617 | 35892 ft | 449 kts | 231° |
| 2026-04-15 17:55 | 13.58483 | 107.39621 | 35885 ft | 450 kts | 231° |
| 2026-04-15 17:56 | 13.54565 | 107.34656 | 35883 ft | 450 kts | 232° |
| 2026-04-15 17:56 | 13.50618 | 107.29648 | 35882 ft | 451 kts | 232° |
| 2026-04-15 17:57 | 13.46663 | 107.24641 | 35884 ft | 451 kts | 232° |
| 2026-04-15 17:57 | 13.42705 | 107.19634 | 35884 ft | 451 kts | 232° |
| 2026-04-15 17:58 | 13.38755 | 107.14631 | 35879 ft | 451 kts | 232° |
| 2026-04-15 17:58 | 13.34802 | 107.09621 | 35879 ft | 451 kts | 232° |
| 2026-04-15 17:59 | 13.30851 | 107.04627 | 35877 ft | 451 kts | 232° |
| 2026-04-15 17:59 | 13.26891 | 106.99634 | 35877 ft | 450 kts | 232° |
| 2026-04-15 18:00 | 13.22941 | 106.94645 | 35871 ft | 450 kts | 232° |
| 2026-04-15 18:00 | 13.18986 | 106.89664 | 35867 ft | 450 kts | 232° |
| 2026-04-15 18:01 | 13.15061 | 106.84712 | 35865 ft | 450 kts | 232° |
| 2026-04-15 18:01 | 13.11113 | 106.79730 | 35864 ft | 450 kts | 232° |
| 2026-04-15 18:02 | 13.07159 | 106.74745 | 35863 ft | 450 kts | 232° |
| 2026-04-15 18:02 | 13.03195 | 106.69760 | 35864 ft | 450 kts | 232° |
| 2026-04-15 18:03 | 13.01217 | 106.67271 | 35710 ft | 450 kts | 232° |
| 2026-04-15 18:03 | 12.99241 | 106.64786 | 35469 ft | 449 kts | 232° |
| 2026-04-15 18:03 | 12.97264 | 106.62298 | 35227 ft | 449 kts | 232° |
| 2026-04-15 18:03 | 12.95287 | 106.59813 | 34995 ft | 450 kts | 232° |
| 2026-04-15 18:04 | 12.93336 | 106.57358 | 34519 ft | 451 kts | 232° |
| 2026-04-15 18:04 | 12.91345 | 106.54851 | 33759 ft | 456 kts | 232° |
| 2026-04-15 18:04 | 12.89331 | 106.52313 | 32866 ft | 461 kts | 232° |
| 2026-04-15 18:04 | 12.87305 | 106.49769 | 32348 ft | 458 kts | 232° |
| 2026-04-15 18:05 | 12.85288 | 106.47239 | 31811 ft | 456 kts | 232° |
| 2026-04-15 18:05 | 12.83286 | 106.44729 | 31275 ft | 453 kts | 231° |
| 2026-04-15 18:05 | 12.81297 | 106.42234 | 30744 ft | 451 kts | 231° |
| 2026-04-15 18:05 | 12.79320 | 106.39752 | 30208 ft | 448 kts | 231° |
| 2026-04-15 18:06 | 12.77351 | 106.37280 | 29632 ft | 446 kts | 231° |
| 2026-04-15 18:06 | 12.75426 | 106.34863 | 29100 ft | 441 kts | 231° |
| 2026-04-15 18:06 | 12.73493 | 106.32441 | 28570 ft | 437 kts | 231° |
| 2026-04-15 18:06 | 12.71575 | 106.30044 | 28048 ft | 433 kts | 231° |
| 2026-04-15 18:07 | 12.69678 | 106.27673 | 27542 ft | 429 kts | 230° |
| 2026-04-15 18:07 | 12.67793 | 106.25320 | 27029 ft | 425 kts | 230° |
| 2026-04-15 18:07 | 12.65931 | 106.22990 | 26546 ft | 421 kts | 230° |
| 2026-04-15 18:07 | 12.64084 | 106.20670 | 26054 ft | 418 kts | 230° |
| 2026-04-15 18:08 | 12.62255 | 106.18374 | 25584 ft | 415 kts | 230° |
| 2026-04-15 18:08 | 12.60432 | 106.16093 | 25105 ft | 412 kts | 230° |
| 2026-04-15 18:08 | 12.58622 | 106.13827 | 24654 ft | 410 kts | 230° |
| 2026-04-15 18:08 | 12.56821 | 106.11578 | 24200 ft | 408 kts | 229° |
| 2026-04-15 18:09 | 12.55023 | 106.09340 | 23762 ft | 406 kts | 229° |
| 2026-04-15 18:09 | 12.53230 | 106.07105 | 23288 ft | 405 kts | 229° |
| 2026-04-15 18:09 | 12.51451 | 106.04880 | 22815 ft | 402 kts | 229° |
| 2026-04-15 18:09 | 12.49690 | 106.02676 | 22381 ft | 399 kts | 229° |
| 2026-04-15 18:10 | 12.47960 | 106.00512 | 21941 ft | 395 kts | 229° |
| 2026-04-15 18:10 | 12.46220 | 105.98341 | 21491 ft | 392 kts | 229° |
| 2026-04-15 18:10 | 12.44499 | 105.96191 | 21041 ft | 390 kts | 230° |
| 2026-04-15 18:10 | 12.42784 | 105.94048 | 20582 ft | 387 kts | 230° |
| 2026-04-15 18:11 | 12.41081 | 105.91923 | 20126 ft | 384 kts | 230° |
| 2026-04-15 18:11 | 12.39388 | 105.89814 | 19654 ft | 382 kts | 230° |
| 2026-04-15 18:11 | 12.37704 | 105.87713 | 19184 ft | 380 kts | 230° |
| 2026-04-15 18:11 | 12.36029 | 105.85621 | 18710 ft | 379 kts | 230° |
| 2026-04-15 18:12 | 12.34360 | 105.83540 | 18236 ft | 377 kts | 230° |
| 2026-04-15 18:12 | 12.32697 | 105.81470 | 17714 ft | 376 kts | 230° |
| 2026-04-15 18:12 | 12.31045 | 105.79410 | 17232 ft | 373 kts | 230° |
| 2026-04-15 18:12 | 12.29409 | 105.77370 | 16767 ft | 370 kts | 230° |
| 2026-04-15 18:13 | 12.27803 | 105.75369 | 16308 ft | 367 kts | 230° |
| 2026-04-15 18:13 | 12.26187 | 105.73361 | 15841 ft | 364 kts | 230° |
| 2026-04-15 18:13 | 12.24579 | 105.71363 | 15372 ft | 361 kts | 230° |
| 2026-04-15 18:14 | 12.21407 | 105.67418 | 14454 ft | 357 kts | 230° |
| 2026-04-15 18:14 | 12.19835 | 105.65459 | 13996 ft | 354 kts | 230° |
| 2026-04-15 18:14 | 12.18273 | 105.63513 | 13510 ft | 353 kts | 230° |
| 2026-04-15 18:14 | 12.16723 | 105.61585 | 13044 ft | 350 kts | 230° |
| 2026-04-15 18:15 | 12.15203 | 105.59693 | 12599 ft | 346 kts | 230° |
| 2026-04-15 18:15 | 12.13680 | 105.57799 | 12150 ft | 343 kts | 230° |
| 2026-04-15 18:15 | 12.12168 | 105.55918 | 11699 ft | 341 kts | 230° |
| 2026-04-15 18:15 | 12.10666 | 105.54049 | 11264 ft | 339 kts | 230° |
| 2026-04-15 18:16 | 12.09177 | 105.52196 | 10827 ft | 336 kts | 230° |
| 2026-04-15 18:16 | 12.07697 | 105.50356 | 10397 ft | 335 kts | 230° |
| 2026-04-15 18:16 | 12.06226 | 105.48531 | 10122 ft | 327 kts | 230° |
| 2026-04-15 18:16 | 12.04805 | 105.46770 | 10006 ft | 315 kts | 230° |
| 2026-04-15 18:17 | 12.03432 | 105.45068 | 9809 ft | 307 kts | 230° |
| 2026-04-15 18:17 | 12.02083 | 105.43396 | 9547 ft | 302 kts | 230° |
| 2026-04-15 18:17 | 12.00751 | 105.41744 | 9180 ft | 301 kts | 230° |
| 2026-04-15 18:17 | 11.99423 | 105.40094 | 8790 ft | 300 kts | 230° |
| 2026-04-15 18:18 | 11.98099 | 105.38448 | 8392 ft | 300 kts | 230° |
| 2026-04-15 18:18 | 11.96779 | 105.36808 | 8081 ft | 296 kts | 230° |
| 2026-04-15 18:18 | 11.95476 | 105.35192 | 7740 ft | 294 kts | 230° |
| 2026-04-15 18:18 | 11.94190 | 105.33600 | 7372 ft | 294 kts | 229° |
| 2026-04-15 18:19 | 11.92887 | 105.31988 | 7010 ft | 293 kts | 229° |
| 2026-04-15 18:19 | 11.91600 | 105.30395 | 6674 ft | 291 kts | 230° |
| 2026-04-15 18:19 | 11.90316 | 105.28801 | 6317 ft | 290 kts | 229° |
| 2026-04-15 18:19 | 11.89036 | 105.27212 | 5917 ft | 290 kts | 229° |
| 2026-04-15 18:20 | 11.87765 | 105.25636 | 5658 ft | 285 kts | 229° |
| 2026-04-15 18:20 | 11.86506 | 105.24077 | 5315 ft | 283 kts | 229° |
| 2026-04-15 18:20 | 11.85283 | 105.22509 | 4980 ft | 282 kts | 230° |
| 2026-04-15 18:20 | 11.84116 | 105.20920 | 4698 ft | 277 kts | 231° |
| 2026-04-15 18:21 | 11.82989 | 105.19349 | 4531 ft | 274 kts | 232° |
| 2026-04-15 18:21 | 11.81869 | 105.17781 | 4377 ft | 273 kts | 231° |
| 2026-04-15 18:21 | 11.80752 | 105.16222 | 4216 ft | 271 kts | 231° |
| 2026-04-15 18:21 | 11.79636 | 105.14673 | 4060 ft | 270 kts | 231° |
| 2026-04-15 18:22 | 11.78523 | 105.13134 | 3906 ft | 269 kts | 231° |
| 2026-04-15 18:22 | 11.77412 | 105.11601 | 3748 ft | 268 kts | 231° |
| 2026-04-15 18:22 | 11.76302 | 105.10073 | 3597 ft | 267 kts | 231° |
| 2026-04-15 18:22 | 11.75215 | 105.08578 | 3438 ft | 266 kts | 231° |
| 2026-04-15 18:23 | 11.74116 | 105.07063 | 3288 ft | 265 kts | 231° |
| 2026-04-15 18:23 | 11.73020 | 105.05554 | 3133 ft | 264 kts | 231° |
| 2026-04-15 18:23 | 11.71942 | 105.04067 | 3010 ft | 256 kts | 231° |
| 2026-04-15 18:23 | 11.70914 | 105.02648 | 2889 ft | 238 kts | 231° |
| 2026-04-15 18:24 | 11.69957 | 105.01331 | 2802 ft | 227 kts | 231° |
| 2026-04-15 18:24 | 11.69018 | 105.00043 | 2707 ft | 225 kts | 231° |
| 2026-04-15 18:24 | 11.68083 | 104.98758 | 2609 ft | 225 kts | 232° |
| 2026-04-15 18:24 | 11.67132 | 104.97492 | 2502 ft | 224 kts | 227° |
| 2026-04-15 18:25 | 11.66081 | 104.96320 | 2367 ft | 223 kts | 224° |
| 2026-04-15 18:25 | 11.65004 | 104.95194 | 2220 ft | 221 kts | 223° |
| 2026-04-15 18:25 | 11.63929 | 104.94076 | 2050 ft | 221 kts | 224° |
| 2026-04-15 18:25 | 11.62860 | 104.92962 | 1904 ft | 219 kts | 224° |
| 2026-04-15 18:26 | 11.61808 | 104.91866 | 1735 ft | 212 kts | 225° |
| 2026-04-15 18:26 | 11.60806 | 104.90822 | 1491 ft | 205 kts | 225° |
| 2026-04-15 18:26 | 11.59847 | 104.89823 | 1237 ft | 187 kts | 225° |
| 2026-04-15 18:26 | 11.58988 | 104.88929 | 1014 ft | 165 kts | 225° |
| 2026-04-15 18:27 | 11.58229 | 104.88138 | 816 ft | 151 kts | 225° |
| 2026-04-15 18:27 | 11.57507 | 104.87386 | 633 ft | 146 kts | 225° |
| 2026-04-15 18:27 | 11.56800 | 104.86648 | 454 ft | 145 kts | 225° |
| 2026-04-15 18:27 | 11.56098 | 104.85915 | 267 ft | 144 kts | 225° |
| 2026-04-15 18:28 | 11.55396 | 104.85186 | 96 ft | 144 kts | 225° |
| 2026-04-15 18:28 | 11.54757 | 104.84520 | 64 ft | 123 kts | 224° |
| 2026-04-15 18:28 | 11.54288 | 104.84034 | 60 ft | 56 kts | 225° |
| 2026-04-15 18:28 | 11.54135 | 104.83873 | 54 ft | 14 kts | 232° |
| 2026-04-15 18:29 | 11.54158 | 104.83790 | 55 ft | 14 kts | 314° |
| 2026-04-15 18:29 | 11.54240 | 104.83743 | 59 ft | 12 kts | 15° |
| 2026-04-15 18:29 | 11.54308 | 104.83802 | 60 ft | 14 kts | 45° |
| 2026-04-15 18:29 | 11.54378 | 104.83874 | 53 ft | 15 kts | 46° |
| 2026-04-15 18:30 | 11.54455 | 104.83955 | 55 ft | 17 kts | 45° |
| 2026-04-15 18:30 | 11.54541 | 104.84044 | 53 ft | 18 kts | 45° |
| 2026-04-15 18:30 | 11.54635 | 104.84141 | 59 ft | 20 kts | 45° |
| 2026-04-15 18:30 | 11.54734 | 104.84245 | 57 ft | 21 kts | 46° |
| 2026-04-15 18:31 | 11.54839 | 104.84354 | 53 ft | 22 kts | 45° |
| 2026-04-15 18:31 | 11.54951 | 104.84471 | 56 ft | 23 kts | 46° |
| 2026-04-15 18:31 | 11.55049 | 104.84573 | 53 ft | 12 kts | 43° |
| 2026-04-15 18:31 | 11.55128 | 104.84596 | 57 ft | 13 kts | 18° |
| 2026-04-15 18:32 | 11.55198 | 104.84657 | 59 ft | 13 kts | 46° |
| 2026-04-15 18:32 | 11.55235 | 104.84701 | 56 ft | 1 kts | 19° |
| 2026-04-15 18:32 | 11.55237 | 104.84700 | 56 ft | 0 kts | 359° |
| 2026-04-15 18:32 | 11.55239 | 104.84693 | 54 ft | 1 kts | 283° |
| 2026-04-15 18:33 | 11.55237 | 104.84680 | 59 ft | 3 kts | 261° |
| 2026-04-15 18:33 | 11.55245 | 104.84662 | 60 ft | 4 kts | 311° |
| 2026-04-15 18:33 | 11.55257 | 104.84649 | 58 ft | 2 kts | 316° |
| 2026-04-15 18:33 | 11.55265 | 104.84641 | 59 ft | 0 kts | 317° |